Map

Track Data

SID SEASON NUMBER BASIN SUBBASIN NAME ISO_TIME NATURE LAT LON WMO_WIND WMO_PRES WMO_AGENCY TRACK_TYPE DIST2LAND LANDFALL IFLAG USA_AGENCY USA_ATCF_ID USA_LAT USA_LON USA_RECORD USA_STATUS USA_WIND USA_PRES USA_SSHS USA_R34_NE USA_R34_SE USA_R34_SW USA_R34_NW USA_R50_NE USA_R50_SE USA_R50_SW USA_R50_NW USA_R64_NE USA_R64_SE USA_R64_SW USA_R64_NW USA_POCI USA_ROCI USA_RMW USA_EYE TOKYO_LAT TOKYO_LON TOKYO_GRADE TOKYO_WIND TOKYO_PRES TOKYO_R50_DIR TOKYO_R50_LONG TOKYO_R50_SHORT TOKYO_R30_DIR TOKYO_R30_LONG TOKYO_R30_SHORT TOKYO_LAND CMA_LAT CMA_LON CMA_CAT CMA_WIND CMA_PRES HKO_LAT HKO_LON HKO_CAT HKO_WIND HKO_PRES NEWDELHI_LAT NEWDELHI_LON NEWDELHI_GRADE NEWDELHI_WIND NEWDELHI_PRES NEWDELHI_CI NEWDELHI_DP NEWDELHI_POCI REUNION_LAT REUNION_LON REUNION_TYPE REUNION_WIND REUNION_PRES REUNION_TNUM REUNION_CI REUNION_RMW REUNION_R34_NE REUNION_R34_SE REUNION_R34_SW REUNION_R34_NW REUNION_R50_NE REUNION_R50_SE REUNION_R50_SW REUNION_R50_NW REUNION_R64_NE REUNION_R64_SE REUNION_R64_SW REUNION_R64_NW BOM_LAT BOM_LON BOM_TYPE BOM_WIND BOM_PRES BOM_TNUM BOM_CI BOM_RMW BOM_R34_NE BOM_R34_SE BOM_R34_SW BOM_R34_NW BOM_R50_NE BOM_R50_SE BOM_R50_SW BOM_R50_NW BOM_R64_NE BOM_R64_SE BOM_R64_SW BOM_R64_NW BOM_ROCI BOM_POCI BOM_EYE BOM_POS_METHOD BOM_PRES_METHOD NADI_LAT NADI_LON NADI_CAT NADI_WIND NADI_PRES WELLINGTON_LAT WELLINGTON_LON WELLINGTON_WIND WELLINGTON_PRES DS824_LAT DS824_LON DS824_STAGE DS824_WIND DS824_PRES TD9636_LAT TD9636_LON TD9636_STAGE TD9636_WIND TD9636_PRES TD9635_LAT TD9635_LON TD9635_WIND TD9635_PRES TD9635_ROCI NEUMANN_LAT NEUMANN_LON NEUMANN_CLASS NEUMANN_WIND NEUMANN_PRES MLC_LAT MLC_LON MLC_CLASS MLC_WIND MLC_PRES USA_GUST BOM_GUST BOM_GUST_PER REUNION_GUST REUNION_GUST_PER USA_SEAHGT USA_SEARAD_NE USA_SEARAD_SE USA_SEARAD_SW USA_SEARAD_NW STORM_SPEED STORM_DIR
1966215N16244 1966 50 EP MM BLANCA 1966-08-03 00:00:00 TS 16.0000 -116.000 45 hurdat_epa main 995 995 O________OO___ hurdat_epa EP021966 16.0000 -116.000 TS 45 0 16.0000 -116.000 TC 45 16.0000 -116.000 2 11 291
1966215N16244 1966 50 EP MM BLANCA 1966-08-03 03:00:00 TS 16.1998 -116.549 main 1012 1012 P________PP___ EP021966 16.2053 -116.555 TS 45 0 16.2053 -116.555 TC 45 16.1774 -116.528 2 11 291
1966215N16244 1966 50 EP MM BLANCA 1966-08-03 06:00:00 TS 16.3927 -117.093 45 hurdat_epa main 1039 1039 O________OP___ hurdat_epa EP021966 16.4000 -117.100 TS 45 0 16.4000 -117.100 TC 45 16.3634 -117.065 2 11 290
1966215N16244 1966 50 EP MM BLANCA 1966-08-03 09:00:00 TS 16.5813 -117.632 main 1062 1062 P________PP___ EP021966 16.5847 -117.635 TS 45 0 16.5847 -117.635 TC 45 16.5677 -117.619 2 11 291
1966215N16244 1966 50 EP MM BLANCA 1966-08-03 12:00:00 TS 16.8000 -118.200 45 hurdat_epa main 1087 1084 O________OO___ hurdat_epa EP021966 16.8000 -118.200 TS 45 0 16.8000 -118.200 TC 45 16.8000 -118.200 2 13 294
1966215N16244 1966 50 EP MM BLANCA 1966-08-03 15:00:00 TS 17.0813 -118.831 main 1097 1097 P________PP___ EP021966 17.0849 -118.835 TS 45 0 17.0849 -118.835 TC 45 17.0668 -118.813 2 14 296
1966215N16244 1966 50 EP MM BLANCA 1966-08-03 18:00:00 TS 17.3924 -119.491 45 hurdat_epa main 1120 1118 O________OP___ hurdat_epa EP021966 17.4000 -119.500 TS 45 0 17.4000 -119.500 TC 45 17.3619 -119.455 2 14 296
1966215N16244 1966 50 EP MM BLANCA 1966-08-03 21:00:00 TS 17.6950 -120.138 main 1139 1139 P________PP___ EP021966 17.6997 -120.143 TS 45 0 17.6997 -120.143 TC 45 17.6761 -120.120 2 14 296
1966215N16244 1966 50 EP MM BLANCA 1966-08-04 00:00:00 TS 18.0000 -120.800 45 hurdat_epa main 1170 1170 O________OO___ hurdat_epa EP021966 18.0000 -120.800 TS 45 0 18.0000 -120.800 TC 45 18.0000 -120.800 2 14 295
1966215N16244 1966 50 EP MM BLANCA 1966-08-04 03:00:00 TS 18.3006 -121.493 main 1204 1204 P________PP___ EP021966 18.2923 -121.493 TS 45 0 18.2923 -121.493 TC 45 18.3337 -121.494 2 15 295
1966215N16244 1966 50 EP MM BLANCA 1966-08-04 06:00:00 TS 18.6144 -122.200 45 hurdat_epa main 1243 1243 O________OP___ hurdat_epa EP021966 18.6000 -122.200 TS 45 0 18.6000 -122.200 TC 45 18.6721 -122.200 2 15 296
1966215N16244 1966 50 EP MM BLANCA 1966-08-04 09:00:00 TS 18.9657 -122.907 main 1262 1262 P________PP___ EP021966 18.9573 -122.907 TS 45 0 18.9573 -122.907 TC 45 18.9994 -122.906 2 15 297
1966215N16244 1966 50 EP MM BLANCA 1966-08-04 12:00:00 TS 19.3000 -123.600 45 hurdat_epa main 1283 1282 O________OO___ hurdat_epa EP021966 19.3000 -123.600 TS 45 0 19.3000 -123.600 TC 45 19.3000 -123.600 2 14 295
1966215N16244 1966 50 EP MM BLANCA 1966-08-04 15:00:00 TS 19.5715 -124.256 main 1308 1308 P________PP___ EP021966 19.5722 -124.258 TS 45 0 19.5722 -124.258 TC 45 19.5686 -124.249 2 13 292
1966215N16244 1966 50 EP MM BLANCA 1966-08-04 18:00:00 TS 19.8016 -124.897 45 hurdat_epa main 1338 1338 O________OP___ hurdat_epa EP021966 19.8000 -124.900 TS 45 0 19.8000 -124.900 TC 45 19.8080 -124.886 2 13 290
1966215N16244 1966 50 EP MM BLANCA 1966-08-04 21:00:00 TS 20.0154 -125.534 main 1369 1369 P________PP___ EP021966 20.0146 -125.535 TS 60 0 20.0146 -125.535 TC 60 20.0185 -125.530 2 13 288
1966215N16244 1966 50 EP MM BLANCA 1966-08-05 00:00:00 TS 20.2000 -126.200 75 hurdat_epa main 1411 1411 O________OO___ hurdat_epa EP021966 20.2000 -126.200 HU 75 1 20.2000 -126.200 TC 75 20.2000 -126.200 4 14 285
1966215N16244 1966 50 EP MM BLANCA 1966-08-05 03:00:00 TS 20.3643 -126.936 main 1455 1455 P________PP___ EP021966 20.3649 -126.935 HU 75 1 20.3649 -126.935 TC 75 20.3619 -126.938 4 14 282
1966215N16244 1966 50 EP MM BLANCA 1966-08-05 06:00:00 TS 20.4990 -127.700 75 hurdat_epa main 1517 1517 O________OP___ hurdat_epa EP021966 20.5000 -127.700 HU 75 1 20.5000 -127.700 TC 75 20.4952 -127.701 4 15 280
1966215N16244 1966 50 EP MM BLANCA 1966-08-05 09:00:00 TS 20.6070 -128.465 main 1580 1580 P________PP___ EP021966 20.6074 -128.465 HU 75 1 20.6074 -128.465 TC 75 20.6057 -128.463 4 14 278
1966215N16244 1966 50 EP MM BLANCA 1966-08-05 12:00:00 TS 20.7000 -129.200 75 hurdat_epa main 1636 1636 O________OO___ hurdat_epa EP021966 20.7000 -129.200 HU 75 1 20.7000 -129.200 TC 75 20.7000 -129.200 2 13 279
1966215N16244 1966 50 EP MM BLANCA 1966-08-05 15:00:00 TS 20.8058 -129.872 main 1693 1693 P________PP___ EP021966 20.8071 -129.865 HU 60 0 20.8071 -129.865 TC 60 20.8007 -129.899 2 12 279
1966215N16244 1966 50 EP MM BLANCA 1966-08-05 18:00:00 TS 20.8973 -130.514 45 hurdat_epa main 1742 1742 O________OP___ hurdat_epa EP021966 20.9000 -130.500 TS 45 0 20.9000 -130.500 TC 45 20.8866 -130.568 2 12 277
1966215N16244 1966 50 EP MM BLANCA 1966-08-05 21:00:00 TS 20.9628 -131.178 main 1800 1800 P________PP___ EP021966 20.9650 -131.173 TS 45 0 20.9650 -131.173 TC 45 20.9541 -131.202 2 12 275
1966215N16244 1966 50 EP MM BLANCA 1966-08-06 00:00:00 TS 21.0000 -131.800 45 hurdat_epa main 1855 1855 O________OO___ hurdat_epa EP021966 21.0000 -131.800 TS 45 0 21.0000 -131.800 TC 45 21.0000 -131.800 2 11 272
1966215N16244 1966 50 EP MM BLANCA 1966-08-06 03:00:00 TS 21.0080 -132.319 main 1890 1890 P________PP___ EP021966 21.0071 -132.315 TS 45 0 21.0071 -132.315 TC 45 21.0117 -132.333 2 9 270
1966215N16244 1966 50 EP MM BLANCA 1966-08-06 06:00:00 TS 21.0010 -132.807 45 hurdat_epa main 1920 1920 O________OP___ hurdat_epa EP021966 21.0000 -132.800 TS 45 0 21.0000 -132.800 TC 45 21.0050 -132.836 2 9 269
1966215N16244 1966 50 EP MM BLANCA 1966-08-06 09:00:00 TS 20.9929 -133.325 main 1951 1951 P________PP___ EP021966 20.9922 -133.320 TS 45 0 20.9922 -133.320 TC 45 20.9960 -133.346 2 10 270
1966215N16244 1966 50 EP MM BLANCA 1966-08-06 12:00:00 TS 21.0000 -133.900 45 hurdat_epa main 1989 1989 O________OO___ hurdat_epa EP021966 21.0000 -133.900 TS 45 0 21.0000 -133.900 TC 45 21.0000 -133.900 2 12 272
1966215N16244 1966 50 EP MM BLANCA 1966-08-06 15:00:00 TS 21.0355 -134.573 main 2035 2035 P________PP___ EP021966 21.0425 -134.577 TS 45 0 21.0425 -134.577 TC 45 21.0074 -134.555 2 13 274
1966215N16244 1966 50 EP MM BLANCA 1966-08-06 18:00:00 TS 21.0865 -135.291 45 hurdat_epa main 2039 1967 O________OP___ hurdat_epa EP021966 21.1000 -135.300 TS 45 0 21.1000 -135.300 TC 45 21.0327 -135.256 2 13 274
1966215N16244 1966 50 EP MM BLANCA 1966-08-06 21:00:00 TS 21.1261 -135.996 main 1967 1895 P________PP___ EP021966 21.1347 -136.000 TS 45 0 21.1347 -136.000 TC 45 21.0916 -135.980 2 13 275
1966215N16244 1966 50 EP MM BLANCA 1966-08-07 00:00:00 TS 21.2000 -136.700 45 hurdat_epa main 1895 1823 O________OO___ hurdat_epa EP021966 21.2000 -136.700 TS 45 0 21.2000 -136.700 TC 45 21.2000 -136.700 6 13 278
1966215N16244 1966 50 EP MM BLANCA 1966-08-07 03:00:00 TS 21.3197 -137.403 main 1823 1752 P________PP___ EP021966 21.3123 -137.408 TS 35 0 21.3123 -137.408 TC 35 21.3495 -137.387 6 13 283
1966215N16244 1966 50 EP MM BLANCA 1966-08-07 06:00:00 TS 21.5103 -138.093 25 hurdat_epa main 1752 1692 O________OP___ hurdat_epa EP021966 21.5000 -138.100 TD 25 -1 21.5000 -138.100 TC 25 21.5515 -138.066 6 13 290
1966215N16244 1966 50 EP MM BLANCA 1966-08-07 09:00:00 TS 21.7703 -138.754 main 1683 1625 P________PP___ EP021966 21.7622 -138.758 TD 25 -1 21.7622 -138.758 TC 25 21.8027 -138.737 6 14 296
1966215N16244 1966 50 EP MM BLANCA 1966-08-07 12:00:00 TS 22.1000 -139.400 25 hurdat_epa main 1625 1569 O________OO___ hurdat_epa EP021966 22.1000 -139.400 TD 25 -1 22.1000 -139.400 TC 25 22.1000 -139.400 6 14 301
1966215N16244 1966 50 EP CP BLANCA 1966-08-07 15:00:00 TS 22.4858 -140.055 main 1561 1509 P________PP___ EP021966 22.4922 -140.050 TD 25 -1 22.4922 -140.050 TC 25 22.4598 -140.072 6 14 303
1966215N16244 1966 50 EP CP BLANCA 1966-08-07 18:00:00 TS 22.8918 -140.707 25 hurdat_epa main 1509 1456 O________OP___ hurdat_epa EP021966 22.9000 -140.700 TD 25 -1 22.9000 -140.700 TC 25 22.8570 -140.736 6 14 302
1966215N16244 1966 50 EP CP BLANCA 1966-08-07 21:00:00 TS 23.2437 -141.352 main 1447 1406 P________PP___ EP021966 23.2799 -141.365 TD 25 -1 23.2799 -141.365 TC 25 23.2506 -141.382 6 13 299
1966215N16244 1966 50 EP CP BLANCA 1966-08-08 00:00:00 TS 23.5217 -141.961 25 hurdat_epa main 1396 1354 O________OO___ hurdat_epa EP021966 23.6000 -142.000 TD 25 -1 23.6000 -142.000 TC 25 23.6000 -142.000 6 12 293
1966215N16244 1966 50 EP CP BLANCA 1966-08-08 03:00:00 TS 23.7050 -142.517 main 1354 1309 P________PP___ EP021966 23.8221 -142.566 TD 25 -1 23.8221 -142.566 TC 25 23.8492 -142.585 6 11 289
1966215N16244 1966 50 EP CP BLANCA 1966-08-08 06:00:00 TS 23.8752 -143.057 25 hurdat_epa main 1304 1260 O________OP___ hurdat_epa EP021966 24.0000 -143.100 TD 25 -1 24.0000 -143.100 TC 25 24.0511 -143.140 6 10 289
1966215N16244 1966 50 EP CP BLANCA 1966-08-08 09:00:00 TS 24.0532 -143.595 main 1264 1222 P________PP___ EP021966 24.1999 -143.658 TD 25 -1 24.1999 -143.658 TC 25 24.2275 -143.675 6 10 290
1966215N16244 1966 50 EP CP BLANCA 1966-08-08 12:00:00 TS 24.2333 -144.117 25 hurdat_epa main 1222 1185 O________OO___ hurdat_epa EP021966 24.4000 -144.200 TD 25 -1 24.4000 -144.200 TC 25 24.4000 -144.200 6 10 292
1966215N16244 1966 50 EP CP BLANCA 1966-08-08 15:00:00 TS 24.4240 -144.609 main 1185 1150 P________PP___ EP021966 24.5997 -144.700 TD 25 -1 24.5997 -144.700 TC 25 24.6026 -144.705 6 10 293
1966215N16244 1966 50 EP CP BLANCA 1966-08-08 18:00:00 TS 24.6176 -145.101 25 hurdat_epa main 1150 1116 O________OP___ hurdat_epa EP021966 24.8000 -145.200 TD 25 -1 24.8000 -145.200 TC 25 24.8054 -145.206 6 10 293
1966215N16244 1966 50 EP CP BLANCA 1966-08-08 21:00:00 TS 24.8103 -145.613 main 1116 1085 P________PP___ EP021966 25.0072 -145.728 TD 25 -1 25.0072 -145.728 TC 25 25.0055 -145.730 6 10 292
1966215N16244 1966 50 EP CP BLANCA 1966-08-09 00:00:00 TS 25.0000 -146.167 25 hurdat_epa main 1076 1039 O________OO___ hurdat_epa EP021966 25.2000 -146.300 TD 25 -1 25.2000 -146.300 TC 25 25.2000 -146.300 2 11 289
1966215N16244 1966 50 EP CP BLANCA 1966-08-09 03:00:00 TS 25.1678 -146.765 main 1037 993 P________PP___ EP021966 25.3497 -146.920 TD 35 0 25.3497 -146.920 TC 35 25.3614 -146.935 2 12 287
1966215N16244 1966 50 EP CP BLANCA 1966-08-09 06:00:00 TS 25.3532 -147.437 45 hurdat_epa main 1000 952 O________OP___ hurdat_epa EP021966 25.5000 -147.600 TS 45 0 25.5000 -147.600 TC 45 25.5192 -147.620 2 14 288
1966215N16244 1966 50 EP CP BLANCA 1966-08-09 09:00:00 TS 25.5810 -148.187 main 951 906 P________PP___ EP021966 25.6772 -148.328 TS 45 0 25.6772 -148.328 TC 45 25.6923 -148.345 2 15 289
1966215N16244 1966 50 EP CP BLANCA 1966-08-09 12:00:00 TS 25.8500 -149.000 45 hurdat_epa main 913 866 O________OO___ hurdat_epa EP021966 25.9000 -149.100 TS 45 0 25.9000 -149.100 TC 45 25.9000 -149.100 2 16 291
1966215N16244 1966 50 EP CP BLANCA 1966-08-09 15:00:00 TS 26.1541 -149.839 main 873 832 P________PP___ EP021966 26.1847 -149.893 TS 45 0 26.1847 -149.893 TC 45 26.1640 -149.883 2 16 292
1966215N16244 1966 50 EP CP BLANCA 1966-08-09 18:00:00 TS 26.4771 -150.699 45 hurdat_epa main 834 808 O________OP___ hurdat_epa EP021966 26.5000 -150.700 TS 45 0 26.5000 -150.700 TC 45 26.4625 -150.692 2 17 292
1966215N16244 1966 50 EP CP BLANCA 1966-08-09 21:00:00 TS 26.7917 -151.560 main 805 793 P________PP___ EP021966 26.7997 -151.508 TS 45 0 26.7997 -151.508 TC 45 26.7796 -151.505 2 16 292
1966215N16244 1966 50 EP CP BLANCA 1966-08-10 00:00:00 TS 27.1000 -152.400 45 hurdat_epa main 793 783 O________OO___ hurdat_epa EP021966 27.1000 -152.300 TS 45 0 27.1000 -152.300 TC 45 27.1000 -152.300 2 16 292
1966215N16244 1966 50 EP CP BLANCA 1966-08-10 03:00:00 TS 27.3858 -153.196 main 790 782 P________PP___ EP021966 27.3996 -153.065 TS 45 0 27.3996 -153.065 TC 45 27.3524 -153.019 2 15 292
1966215N16244 1966 50 EP CP BLANCA 1966-08-10 06:00:00 TS 27.6689 -153.953 45 hurdat_epa main 787 777 O________OP___ hurdat_epa EP021966 27.7000 -153.800 TS 45 0 27.7000 -153.800 TC 45 27.6134 -153.720 2 14 293
1966215N16244 1966 50 EP CP BLANCA 1966-08-10 09:00:00 TS 27.9293 -154.666 main 774 774 P________PP___ EP021966 27.9540 -154.479 TS 45 0 27.9540 -154.479 TC 45 27.9178 -154.436 2 14 295
1966215N16244 1966 50 EP CP BLANCA 1966-08-10 12:00:00 TS 28.2667 -155.400 45 hurdat_epa main 789 786 O________OO___ hurdat_epa EP021966 28.3000 -155.200 TS 45 0 28.3000 -155.200 TC 45 28.3000 -155.200 2 16 302
1966215N16244 1966 50 EP CP BLANCA 1966-08-10 15:00:00 TS 28.7884 -156.236 main 810 806 P________PP___ EP021966 28.8623 -156.062 TS 45 0 28.8623 -156.062 TC 45 28.8740 -156.085 2 19 306
1966215N16244 1966 50 EP CP BLANCA 1966-08-10 18:00:00 TS 29.3686 -157.121 45 hurdat_epa main 844 842 O________OP___ hurdat_epa EP021966 29.5000 -157.000 TS 45 0 29.5000 -157.000 TC 45 29.5115 -157.025 2 19 306
1966215N16244 1966 50 EP CP BLANCA 1966-08-10 21:00:00 TS 29.9158 -158.023 main 880 879 P________PP___ EP021966 30.1175 -157.972 TS 45 0 30.1175 -157.972 TC 45 30.1179 -157.978 2 18 302
1966215N16244 1966 50 EP CP BLANCA 1966-08-11 00:00:00 TS 30.3500 -158.900 45 hurdat_epa main 927 927 O________OO___ hurdat_epa EP021966 30.6000 -158.900 TS 45 0 30.6000 -158.900 TC 45 30.6000 -158.900 2 16 295
1966215N16244 1966 50 EP CP BLANCA 1966-08-11 03:00:00 TS 30.5820 -159.692 main 949 949 P________PP___ EP021966 30.8238 -159.674 TS 45 0 30.8238 -159.674 TC 45 30.8540 -159.728 2 14 285
1966215N16244 1966 50 EP CP BLANCA 1966-08-11 06:00:00 TS 30.6961 -160.451 45 hurdat_epa main 963 963 O________OP___ hurdat_epa EP021966 30.9000 -160.400 TS 45 0 30.9000 -160.400 TC 45 30.9764 -160.509 2 13 279
1966215N16244 1966 50 EP CP BLANCA 1966-08-11 09:00:00 TS 30.7928 -161.239 main 983 983 P________PP___ EP021966 30.9723 -161.200 TS 45 0 30.9723 -161.200 TC 45 31.0107 -161.260 2 14 277
1966215N16244 1966 50 EP CP BLANCA 1966-08-11 12:00:00 TS 30.8500 -162.017 45 hurdat_epa main 1009 1009 O________OO___ hurdat_epa EP021966 31.0000 -162.000 TS 45 0 31.0000 -162.000 TC 45 31.0000 -162.000 2 13 274
1966215N16244 1966 50 EP CP BLANCA 1966-08-11 15:00:00 TS 30.8907 -162.762 main 1029 1029 P________PP___ EP021966 31.0144 -162.758 TS 45 0 31.0144 -162.758 TC 45 30.9798 -162.744 2 13 273
1966215N16244 1966 50 EP CP BLANCA 1966-08-11 18:00:00 TS 30.9095 -163.499 45 hurdat_epa main 1052 1052 O________OP___ hurdat_epa EP021966 31.0000 -163.500 TS 45 0 31.0000 -163.500 TC 45 30.9568 -163.493 2 13 271
1966215N16244 1966 50 EP CP BLANCA 1966-08-11 21:00:00 TS 30.9104 -164.246 main 1079 1079 P________PP___ EP021966 30.9584 -164.248 TS 45 0 30.9584 -164.248 TC 45 30.9304 -164.246 2 13 270
1966215N16244 1966 50 EP CP BLANCA 1966-08-12 00:00:00 TS 30.9000 -165.000 45 hurdat_epa main 1114 O________OO___ hurdat_epa EP021966 30.9000 -165.000 TS 45 0 30.9000 -165.000 TC 45 30.9000 -165.000 6 13 269

About IBTrACS Database

This database is a web-friendly format of International Best Track Archive for Climate Stewardship (IBTrACS), a global best track data archive curated by NOAA dating back to 1842.

Updated: 2021-10-25